sensor_id;sensor_type;location;lat;lon;timestamp;temperature;humidity
10873;DHT22;34586;53.616;10.032;2024-01-16T00:00:46;0.80;99.90
10873;DHT22;34586;53.616;10.032;2024-01-16T00:03:12;0.80;99.90
10873;DHT22;34586;53.616;10.032;2024-01-16T00:05:37;0.80;99.90
10873;DHT22;34586;53.616;10.032;2024-01-16T00:08:03;0.90;99.90
10873;DHT22;34586;53.616;10.032;2024-01-16T00:10:29;0.70;99.90
10873;DHT22;34586;53.616;10.032;2024-01-16T00:12:54;0.70;99.90
10873;DHT22;34586;53.616;10.032;2024-01-16T00:15:20;0.70;99.90
10873;DHT22;34586;53.616;10.032;2024-01-16T00:17:46;0.60;99.90
10873;DHT22;34586;53.616;10.032;2024-01-16T00:20:11;0.60;99.90
10873;DHT22;34586;53.616;10.032;2024-01-16T00:22:37;0.60;99.90
10873;DHT22;34586;53.616;10.032;2024-01-16T00:25:03;0.60;99.90
10873;DHT22;34586;53.616;10.032;2024-01-16T00:27:28;0.60;99.90
10873;DHT22;34586;53.616;10.032;2024-01-16T00:29:54;0.60;99.90
10873;DHT22;34586;53.616;10.032;2024-01-16T00:32:19;0.60;99.90
10873;DHT22;34586;53.616;10.032;2024-01-16T00:34:45;0.60;99.90
10873;DHT22;34586;53.616;10.032;2024-01-16T00:37:11;0.50;99.90
10873;DHT22;34586;53.616;10.032;2024-01-16T00:39:37;0.50;99.90
10873;DHT22;34586;53.616;10.032;2024-01-16T00:42:03;0.20;99.90
10873;DHT22;34586;53.616;10.032;2024-01-16T00:44:28;0.60;99.90
10873;DHT22;34586;53.616;10.032;2024-01-16T00:46:54;0.60;99.90
10873;DHT22;34586;53.616;10.032;2024-01-16T00:49:19;0.50;99.90
10873;DHT22;34586;53.616;10.032;2024-01-16T00:51:45;0.50;99.90
10873;DHT22;34586;53.616;10.032;2024-01-16T00:54:11;0.50;99.90
10873;DHT22;34586;53.616;10.032;2024-01-16T00:56:36;0.50;99.90
10873;DHT22;34586;53.616;10.032;2024-01-16T00:59:02;0.40;99.90
10873;DHT22;34586;53.616;10.032;2024-01-16T01:01:28;0.40;99.90
10873;DHT22;34586;53.616;10.032;2024-01-16T01:03:54;0.40;99.90
10873;DHT22;34586;53.616;10.032;2024-01-16T01:06:20;0.40;99.90
10873;DHT22;34586;53.616;10.032;2024-01-16T01:08:46;0.40;99.90
10873;DHT22;34586;53.616;10.032;2024-01-16T01:11:12;0.40;99.90
10873;DHT22;34586;53.616;10.032;2024-01-16T01:13:38;0.40;99.90
10873;DHT22;34586;53.616;10.032;2024-01-16T01:16:03;0.40;99.90
10873;DHT22;34586;53.616;10.032;2024-01-16T01:18:29;0.40;99.90
10873;DHT22;34586;53.616;10.032;2024-01-16T01:20:55;0.30;99.90
10873;DHT22;34586;53.616;10.032;2024-01-16T01:23:21;0.30;99.90
10873;DHT22;34586;53.616;10.032;2024-01-16T01:25:47;0.40;99.90
10873;DHT22;34586;53.616;10.032;2024-01-16T01:28:12;0.30;99.90
10873;DHT22;34586;53.616;10.032;2024-01-16T01:30:38;0.30;99.90
10873;DHT22;34586;53.616;10.032;2024-01-16T01:33:04;0.20;99.90
10873;DHT22;34586;53.616;10.032;2024-01-16T01:35:30;0.20;99.90
10873;DHT22;34586;53.616;10.032;2024-01-16T01:37:56;0.10;99.90
10873;DHT22;34586;53.616;10.032;2024-01-16T01:40:21;0.10;99.90
10873;DHT22;34586;53.616;10.032;2024-01-16T01:42:47;0.10;99.90
10873;DHT22;34586;53.616;10.032;2024-01-16T01:45:12;0.10;99.90
10873;DHT22;34586;53.616;10.032;2024-01-16T01:47:40;0.20;99.90
10873;DHT22;34586;53.616;10.032;2024-01-16T01:50:08;0.20;99.90
10873;DHT22;34586;53.616;10.032;2024-01-16T01:52:36;0.20;99.90
10873;DHT22;34586;53.616;10.032;2024-01-16T01:55:03;0.20;99.90
10873;DHT22;34586;53.616;10.032;2024-01-16T01:57:29;0.30;99.90
10873;DHT22;34586;53.616;10.032;2024-01-16T01:59:55;0.30;99.90
10873;DHT22;34586;53.616;10.032;2024-01-16T02:02:21;0.30;99.90
10873;DHT22;34586;53.616;10.032;2024-01-16T02:04:47;0.30;99.90
10873;DHT22;34586;53.616;10.032;2024-01-16T02:07:13;0.30;99.90
10873;DHT22;34586;53.616;10.032;2024-01-16T02:09:39;0.30;99.90
10873;DHT22;34586;53.616;10.032;2024-01-16T02:12:06;0.20;99.90
10873;DHT22;34586;53.616;10.032;2024-01-16T02:14:32;0.20;99.90
10873;DHT22;34586;53.616;10.032;2024-01-16T02:16:58;0.10;99.90
10873;DHT22;34586;53.616;10.032;2024-01-16T02:19:23;0.20;99.90
10873;DHT22;34586;53.616;10.032;2024-01-16T02:21:56;0.20;99.90
10873;DHT22;34586;53.616;10.032;2024-01-16T02:24:24;0.20;99.90
10873;DHT22;34586;53.616;10.032;2024-01-16T02:26:50;0.30;99.90
10873;DHT22;34586;53.616;10.032;2024-01-16T02:29:16;0.30;99.90
10873;DHT22;34586;53.616;10.032;2024-01-16T02:31:41;0.40;99.90
10873;DHT22;34586;53.616;10.032;2024-01-16T02:34:07;0.30;99.90
10873;DHT22;34586;53.616;10.032;2024-01-16T02:36:34;0.30;99.90
10873;DHT22;34586;53.616;10.032;2024-01-16T02:38:59;0.20;99.90
10873;DHT22;34586;53.616;10.032;2024-01-16T02:41:25;0.30;99.90
10873;DHT22;34586;53.616;10.032;2024-01-16T02:43:51;0.20;99.90
10873;DHT22;34586;53.616;10.032;2024-01-16T02:46:16;0.20;99.90
10873;DHT22;34586;53.616;10.032;2024-01-16T02:48:42;0.20;99.90
10873;DHT22;34586;53.616;10.032;2024-01-16T02:51:08;0.20;99.90
10873;DHT22;34586;53.616;10.032;2024-01-16T02:53:34;0.30;99.90
10873;DHT22;34586;53.616;10.032;2024-01-16T02:56:00;0.20;99.90
10873;DHT22;34586;53.616;10.032;2024-01-16T02:58:27;0.30;99.90
10873;DHT22;34586;53.616;10.032;2024-01-16T03:00:52;0.20;99.90
10873;DHT22;34586;53.616;10.032;2024-01-16T03:03:18;0.20;99.90
10873;DHT22;34586;53.616;10.032;2024-01-16T03:05:44;0.30;99.90
10873;DHT22;34586;53.616;10.032;2024-01-16T03:08:10;0.30;99.90
10873;DHT22;34586;53.616;10.032;2024-01-16T03:10:36;0.30;99.90
10873;DHT22;34586;53.616;10.032;2024-01-16T03:13:01;0.20;99.90
10873;DHT22;34586;53.616;10.032;2024-01-16T03:15:28;0.10;99.90
10873;DHT22;34586;53.616;10.032;2024-01-16T03:17:56;0.10;99.90
10873;DHT22;34586;53.616;10.032;2024-01-16T03:20:22;0.10;99.90
10873;DHT22;34586;53.616;10.032;2024-01-16T03:22:48;0.10;99.90
10873;DHT22;34586;53.616;10.032;2024-01-16T03:25:14;0.20;99.90
10873;DHT22;34586;53.616;10.032;2024-01-16T03:27:40;0.20;99.90
10873;DHT22;34586;53.616;10.032;2024-01-16T03:30:06;0.20;99.90
10873;DHT22;34586;53.616;10.032;2024-01-16T03:32:34;0.20;99.90
10873;DHT22;34586;53.616;10.032;2024-01-16T03:34:59;0.20;99.90
10873;DHT22;34586;53.616;10.032;2024-01-16T03:37:25;0.30;99.90
10873;DHT22;34586;53.616;10.032;2024-01-16T03:39:51;0.30;99.90
10873;DHT22;34586;53.616;10.032;2024-01-16T03:42:16;0.30;99.90
10873;DHT22;34586;53.616;10.032;2024-01-16T03:44:42;0.30;99.90
10873;DHT22;34586;53.616;10.032;2024-01-16T03:47:09;0.30;99.90
10873;DHT22;34586;53.616;10.032;2024-01-16T03:49:34;0.30;99.90
10873;DHT22;34586;53.616;10.032;2024-01-16T03:52:00;0.20;99.90
10873;DHT22;34586;53.616;10.032;2024-01-16T03:54:26;0.30;99.90
10873;DHT22;34586;53.616;10.032;2024-01-16T03:56:53;0.30;99.90
10873;DHT22;34586;53.616;10.032;2024-01-16T03:59:19;0.30;99.90
10873;DHT22;34586;53.616;10.032;2024-01-16T04:01:44;0.30;99.90
10873;DHT22;34586;53.616;10.032;2024-01-16T04:04:11;0.30;99.90
10873;DHT22;34586;53.616;10.032;2024-01-16T04:06:37;0.30;99.90
10873;DHT22;34586;53.616;10.032;2024-01-16T04:09:03;0.30;99.90
10873;DHT22;34586;53.616;10.032;2024-01-16T04:11:30;0.20;99.90
10873;DHT22;34586;53.616;10.032;2024-01-16T04:13:55;0.20;99.90
10873;DHT22;34586;53.616;10.032;2024-01-16T04:16:21;0.10;99.90
10873;DHT22;34586;53.616;10.032;2024-01-16T04:18:47;0.10;99.90
10873;DHT22;34586;53.616;10.032;2024-01-16T04:21:13;0.10;99.90
10873;DHT22;34586;53.616;10.032;2024-01-16T04:23:38;0.10;99.90
10873;DHT22;34586;53.616;10.032;2024-01-16T04:26:04;0.10;99.90
10873;DHT22;34586;53.616;10.032;2024-01-16T04:28:30;0.20;99.90
10873;DHT22;34586;53.616;10.032;2024-01-16T04:30:55;0.20;99.90
10873;DHT22;34586;53.616;10.032;2024-01-16T04:33:21;0.30;99.90
10873;DHT22;34586;53.616;10.032;2024-01-16T04:35:47;0.30;99.90
10873;DHT22;34586;53.616;10.032;2024-01-16T04:38:12;0.30;99.90
10873;DHT22;34586;53.616;10.032;2024-01-16T04:40:38;0.30;99.90
10873;DHT22;34586;53.616;10.032;2024-01-16T04:43:04;0.30;99.90
10873;DHT22;34586;53.616;10.032;2024-01-16T04:45:29;0.30;99.90
10873;DHT22;34586;53.616;10.032;2024-01-16T04:47:55;0.30;99.90
10873;DHT22;34586;53.616;10.032;2024-01-16T04:50:20;0.30;99.90
10873;DHT22;34586;53.616;10.032;2024-01-16T04:52:46;0.30;99.90
10873;DHT22;34586;53.616;10.032;2024-01-16T04:55:12;0.20;99.90
10873;DHT22;34586;53.616;10.032;2024-01-16T04:57:37;0.20;99.90
10873;DHT22;34586;53.616;10.032;2024-01-16T05:00:03;0.20;99.90
10873;DHT22;34586;53.616;10.032;2024-01-16T05:02:32;0.20;99.90
10873;DHT22;34586;53.616;10.032;2024-01-16T05:04:58;0.10;99.90
10873;DHT22;34586;53.616;10.032;2024-01-16T05:07:24;0.10;99.90
10873;DHT22;34586;53.616;10.032;2024-01-16T05:09:50;0.00;99.90
10873;DHT22;34586;53.616;10.032;2024-01-16T05:12:15;0.10;99.90
10873;DHT22;34586;53.616;10.032;2024-01-16T05:14:41;0.10;99.90
10873;DHT22;34586;53.616;10.032;2024-01-16T05:17:07;0.10;99.90
10873;DHT22;34586;53.616;10.032;2024-01-16T05:19:33;0.00;99.90
10873;DHT22;34586;53.616;10.032;2024-01-16T05:21:59;0.10;99.90
10873;DHT22;34586;53.616;10.032;2024-01-16T05:24:24;0.20;99.90
10873;DHT22;34586;53.616;10.032;2024-01-16T05:26:50;0.20;99.90
10873;DHT22;34586;53.616;10.032;2024-01-16T05:29:16;0.20;99.90
10873;DHT22;34586;53.616;10.032;2024-01-16T05:31:42;0.30;99.90
10873;DHT22;34586;53.616;10.032;2024-01-16T05:34:09;0.40;99.90
10873;DHT22;34586;53.616;10.032;2024-01-16T05:36:34;0.50;99.90
10873;DHT22;34586;53.616;10.032;2024-01-16T05:39:00;0.50;99.90
10873;DHT22;34586;53.616;10.032;2024-01-16T05:41:26;0.40;99.90
10873;DHT22;34586;53.616;10.032;2024-01-16T05:43:51;0.50;99.90
10873;DHT22;34586;53.616;10.032;2024-01-16T05:46:18;0.50;99.90
10873;DHT22;34586;53.616;10.032;2024-01-16T05:48:44;0.60;99.90
10873;DHT22;34586;53.616;10.032;2024-01-16T05:51:09;0.60;99.90
10873;DHT22;34586;53.616;10.032;2024-01-16T05:53:35;0.60;99.90
10873;DHT22;34586;53.616;10.032;2024-01-16T05:56:00;0.60;99.90
10873;DHT22;34586;53.616;10.032;2024-01-16T05:58:26;0.60;99.90
10873;DHT22;34586;53.616;10.032;2024-01-16T06:00:51;0.60;99.90
10873;DHT22;34586;53.616;10.032;2024-01-16T06:03:17;0.60;99.90
10873;DHT22;34586;53.616;10.032;2024-01-16T06:05:43;0.60;99.90
10873;DHT22;34586;53.616;10.032;2024-01-16T06:08:09;0.50;99.90
10873;DHT22;34586;53.616;10.032;2024-01-16T06:10:34;0.50;99.90
10873;DHT22;34586;53.616;10.032;2024-01-16T06:13:00;0.50;99.90
10873;DHT22;34586;53.616;10.032;2024-01-16T06:15:26;0.50;99.90
10873;DHT22;34586;53.616;10.032;2024-01-16T06:17:51;0.50;99.90
10873;DHT22;34586;53.616;10.032;2024-01-16T06:20:17;0.50;99.90
10873;DHT22;34586;53.616;10.032;2024-01-16T06:22:42;0.60;99.90
10873;DHT22;34586;53.616;10.032;2024-01-16T06:25:08;0.60;99.90
10873;DHT22;34586;53.616;10.032;2024-01-16T06:27:34;0.60;99.90
10873;DHT22;34586;53.616;10.032;2024-01-16T06:29:59;0.60;99.90
10873;DHT22;34586;53.616;10.032;2024-01-16T06:32:25;0.70;99.90
10873;DHT22;34586;53.616;10.032;2024-01-16T06:34:50;0.80;99.90
10873;DHT22;34586;53.616;10.032;2024-01-16T06:37:16;0.80;99.90
10873;DHT22;34586;53.616;10.032;2024-01-16T06:39:42;0.80;99.90
10873;DHT22;34586;53.616;10.032;2024-01-16T06:42:07;0.90;99.90
10873;DHT22;34586;53.616;10.032;2024-01-16T06:44:33;0.90;99.90
10873;DHT22;34586;53.616;10.032;2024-01-16T06:46:58;0.90;99.90
10873;DHT22;34586;53.616;10.032;2024-01-16T06:49:24;0.80;99.90
10873;DHT22;34586;53.616;10.032;2024-01-16T06:51:49;0.90;99.90
10873;DHT22;34586;53.616;10.032;2024-01-16T06:54:15;0.80;99.90
10873;DHT22;34586;53.616;10.032;2024-01-16T06:56:41;0.80;99.90
10873;DHT22;34586;53.616;10.032;2024-01-16T06:59:06;0.90;99.90
10873;DHT22;34586;53.616;10.032;2024-01-16T07:01:32;0.90;99.90
10873;DHT22;34586;53.616;10.032;2024-01-16T07:03:57;0.80;99.90
10873;DHT22;34586;53.616;10.032;2024-01-16T07:06:23;0.80;99.90
10873;DHT22;34586;53.616;10.032;2024-01-16T07:08:48;0.80;99.90
10873;DHT22;34586;53.616;10.032;2024-01-16T07:11:14;0.80;99.90
10873;DHT22;34586;53.616;10.032;2024-01-16T07:13:40;0.80;99.90
10873;DHT22;34586;53.616;10.032;2024-01-16T07:16:09;0.70;99.90
10873;DHT22;34586;53.616;10.032;2024-01-16T07:18:36;0.70;99.90
10873;DHT22;34586;53.616;10.032;2024-01-16T07:21:01;0.60;99.90
10873;DHT22;34586;53.616;10.032;2024-01-16T07:23:29;0.60;99.90
10873;DHT22;34586;53.616;10.032;2024-01-16T07:25:55;0.60;99.90
10873;DHT22;34586;53.616;10.032;2024-01-16T07:28:21;0.60;99.90
10873;DHT22;34586;53.616;10.032;2024-01-16T07:30:47;0.60;99.90
10873;DHT22;34586;53.616;10.032;2024-01-16T07:33:13;0.70;99.90
10873;DHT22;34586;53.616;10.032;2024-01-16T07:35:39;0.60;99.90
10873;DHT22;34586;53.616;10.032;2024-01-16T07:38:07;0.70;99.90
10873;DHT22;34586;53.616;10.032;2024-01-16T07:40:32;0.70;99.90
10873;DHT22;34586;53.616;10.032;2024-01-16T07:42:58;0.80;99.90
10873;DHT22;34586;53.616;10.032;2024-01-16T07:45:24;0.80;99.90
10873;DHT22;34586;53.616;10.032;2024-01-16T07:47:49;0.90;99.90
10873;DHT22;34586;53.616;10.032;2024-01-16T07:50:15;0.80;99.90
10873;DHT22;34586;53.616;10.032;2024-01-16T07:52:41;0.90;99.90
10873;DHT22;34586;53.616;10.032;2024-01-16T07:55:06;0.80;99.90
10873;DHT22;34586;53.616;10.032;2024-01-16T07:57:32;0.80;99.90
10873;DHT22;34586;53.616;10.032;2024-01-16T07:59:58;0.90;99.90
10873;DHT22;34586;53.616;10.032;2024-01-16T08:02:32;0.90;99.90
10873;DHT22;34586;53.616;10.032;2024-01-16T08:04:57;1.00;99.90
10873;DHT22;34586;53.616;10.032;2024-01-16T08:07:23;1.00;99.90
10873;DHT22;34586;53.616;10.032;2024-01-16T08:09:48;1.00;99.90
10873;DHT22;34586;53.616;10.032;2024-01-16T08:12:14;0.90;99.90
10873;DHT22;34586;53.616;10.032;2024-01-16T08:14:40;0.90;99.90
10873;DHT22;34586;53.616;10.032;2024-01-16T08:17:05;0.90;99.90
10873;DHT22;34586;53.616;10.032;2024-01-16T08:19:32;1.00;99.90
10873;DHT22;34586;53.616;10.032;2024-01-16T08:21:58;1.00;99.90
10873;DHT22;34586;53.616;10.032;2024-01-16T08:24:23;1.00;99.90
10873;DHT22;34586;53.616;10.032;2024-01-16T08:26:49;1.10;99.90
10873;DHT22;34586;53.616;10.032;2024-01-16T08:29:15;1.10;99.90
10873;DHT22;34586;53.616;10.032;2024-01-16T08:31:41;1.10;99.90
10873;DHT22;34586;53.616;10.032;2024-01-16T08:34:06;1.10;99.90
10873;DHT22;34586;53.616;10.032;2024-01-16T08:36:32;1.10;99.90
10873;DHT22;34586;53.616;10.032;2024-01-16T08:38:57;1.10;99.90
10873;DHT22;34586;53.616;10.032;2024-01-16T08:41:23;1.10;99.90
10873;DHT22;34586;53.616;10.032;2024-01-16T08:43:49;1.00;99.90
10873;DHT22;34586;53.616;10.032;2024-01-16T08:46:14;1.00;99.90
10873;DHT22;34586;53.616;10.032;2024-01-16T08:48:40;1.00;99.90
10873;DHT22;34586;53.616;10.032;2024-01-16T08:51:08;1.00;99.90
10873;DHT22;34586;53.616;10.032;2024-01-16T08:53:37;0.90;99.90
10873;DHT22;34586;53.616;10.032;2024-01-16T08:56:03;0.60;99.90
10873;DHT22;34586;53.616;10.032;2024-01-16T08:58:32;0.80;99.90
10873;DHT22;34586;53.616;10.032;2024-01-16T09:01:04;0.80;99.90
10873;DHT22;34586;53.616;10.032;2024-01-16T09:03:33;0.90;99.90
10873;DHT22;34586;53.616;10.032;2024-01-16T09:06:00;0.90;99.90
10873;DHT22;34586;53.616;10.032;2024-01-16T09:08:26;1.00;99.90
10873;DHT22;34586;53.616;10.032;2024-01-16T09:10:53;1.00;99.90
10873;DHT22;34586;53.616;10.032;2024-01-16T09:13:19;1.20;99.90
10873;DHT22;34586;53.616;10.032;2024-01-16T09:15:46;0.90;99.90
10873;DHT22;34586;53.616;10.032;2024-01-16T09:18:12;1.00;99.90
10873;DHT22;34586;53.616;10.032;2024-01-16T09:20:38;1.10;99.90
10873;DHT22;34586;53.616;10.032;2024-01-16T09:23:03;1.10;99.90
10873;DHT22;34586;53.616;10.032;2024-01-16T09:25:29;1.10;99.90
10873;DHT22;34586;53.616;10.032;2024-01-16T09:27:55;1.10;99.90
10873;DHT22;34586;53.616;10.032;2024-01-16T09:30:21;1.10;99.90
10873;DHT22;34586;53.616;10.032;2024-01-16T09:32:48;1.10;99.90
10873;DHT22;34586;53.616;10.032;2024-01-16T09:35:14;1.10;99.90
10873;DHT22;34586;53.616;10.032;2024-01-16T09:37:40;1.10;99.90
10873;DHT22;34586;53.616;10.032;2024-01-16T09:40:06;1.20;99.90
10873;DHT22;34586;53.616;10.032;2024-01-16T09:42:32;1.20;99.90
10873;DHT22;34586;53.616;10.032;2024-01-16T09:45:00;1.20;99.90
10873;DHT22;34586;53.616;10.032;2024-01-16T09:47:27;1.30;99.90
10873;DHT22;34586;53.616;10.032;2024-01-16T09:49:52;1.30;99.90
10873;DHT22;34586;53.616;10.032;2024-01-16T09:52:20;1.40;99.90
10873;DHT22;34586;53.616;10.032;2024-01-16T09:54:45;1.40;99.90
10873;DHT22;34586;53.616;10.032;2024-01-16T09:57:12;1.50;99.90
10873;DHT22;34586;53.616;10.032;2024-01-16T09:59:39;1.40;99.90
10873;DHT22;34586;53.616;10.032;2024-01-16T10:02:08;1.40;99.90
10873;DHT22;34586;53.616;10.032;2024-01-16T10:04:36;1.40;99.90
10873;DHT22;34586;53.616;10.032;2024-01-16T10:07:04;1.50;99.90
10873;DHT22;34586;53.616;10.032;2024-01-16T10:09:30;1.60;99.90
10873;DHT22;34586;53.616;10.032;2024-01-16T10:11:56;1.60;99.90
10873;DHT22;34586;53.616;10.032;2024-01-16T10:14:23;1.70;99.90
10873;DHT22;34586;53.616;10.032;2024-01-16T10:16:58;1.60;99.90
10873;DHT22;34586;53.616;10.032;2024-01-16T10:19:27;1.60;99.90
10873;DHT22;34586;53.616;10.032;2024-01-16T10:22:04;1.60;99.90
10873;DHT22;34586;53.616;10.032;2024-01-16T10:24:30;1.60;99.90
10873;DHT22;34586;53.616;10.032;2024-01-16T10:27:00;1.60;99.90
10873;DHT22;34586;53.616;10.032;2024-01-16T10:29:26;1.70;99.90
10873;DHT22;34586;53.616;10.032;2024-01-16T10:31:52;1.80;99.90
10873;DHT22;34586;53.616;10.032;2024-01-16T10:34:22;1.90;99.90
10873;DHT22;34586;53.616;10.032;2024-01-16T10:36:49;2.00;99.90
10873;DHT22;34586;53.616;10.032;2024-01-16T10:39:15;2.00;99.90
10873;DHT22;34586;53.616;10.032;2024-01-16T10:41:41;2.00;99.90
10873;DHT22;34586;53.616;10.032;2024-01-16T10:44:07;2.00;99.90
10873;DHT22;34586;53.616;10.032;2024-01-16T10:46:34;2.10;99.90
10873;DHT22;34586;53.616;10.032;2024-01-16T10:49:02;2.10;99.90
10873;DHT22;34586;53.616;10.032;2024-01-16T10:51:28;2.10;99.90
10873;DHT22;34586;53.616;10.032;2024-01-16T10:53:58;2.20;99.90
10873;DHT22;34586;53.616;10.032;2024-01-16T10:56:24;2.10;99.90
10873;DHT22;34586;53.616;10.032;2024-01-16T11:01:30;2.30;99.90
10873;DHT22;34586;53.616;10.032;2024-01-16T11:03:57;2.30;99.90
10873;DHT22;34586;53.616;10.032;2024-01-16T11:06:24;2.30;99.90
10873;DHT22;34586;53.616;10.032;2024-01-16T11:08:51;2.20;99.90
10873;DHT22;34586;53.616;10.032;2024-01-16T11:11:17;2.20;99.90
10873;DHT22;34586;53.616;10.032;2024-01-16T11:13:43;2.20;99.90
10873;DHT22;34586;53.616;10.032;2024-01-16T11:16:11;2.20;99.90
10873;DHT22;34586;53.616;10.032;2024-01-16T11:18:37;2.30;99.90
10873;DHT22;34586;53.616;10.032;2024-01-16T11:21:11;2.20;99.90
10873;DHT22;34586;53.616;10.032;2024-01-16T11:23:37;2.30;99.90
10873;DHT22;34586;53.616;10.032;2024-01-16T11:26:28;2.30;99.90
10873;DHT22;34586;53.616;10.032;2024-01-16T11:28:57;2.40;99.90
10873;DHT22;34586;53.616;10.032;2024-01-16T11:31:31;2.40;99.90
10873;DHT22;34586;53.616;10.032;2024-01-16T11:33:58;2.40;99.90
10873;DHT22;34586;53.616;10.032;2024-01-16T11:36:50;2.40;99.90
10873;DHT22;34586;53.616;10.032;2024-01-16T11:39:25;2.50;99.90
10873;DHT22;34586;53.616;10.032;2024-01-16T11:41:54;2.40;99.90
10873;DHT22;34586;53.616;10.032;2024-01-16T11:47:05;2.50;99.90
10873;DHT22;34586;53.616;10.032;2024-01-16T11:49:32;2.50;99.90
10873;DHT22;34586;53.616;10.032;2024-01-16T11:51:58;2.50;99.90
10873;DHT22;34586;53.616;10.032;2024-01-16T11:54:24;2.50;99.90
10873;DHT22;34586;53.616;10.032;2024-01-16T11:57:12;2.60;99.90
10873;DHT22;34586;53.616;10.032;2024-01-16T12:02:38;2.60;99.90
10873;DHT22;34586;53.616;10.032;2024-01-16T12:05:04;2.60;99.90
10873;DHT22;34586;53.616;10.032;2024-01-16T12:07:49;2.50;99.90
10873;DHT22;34586;53.616;10.032;2024-01-16T12:10:19;2.50;99.90
10873;DHT22;34586;53.616;10.032;2024-01-16T12:12:46;2.50;99.90
10873;DHT22;34586;53.616;10.032;2024-01-16T12:15:16;2.50;99.90
10873;DHT22;34586;53.616;10.032;2024-01-16T12:17:56;2.80;99.90
10873;DHT22;34586;53.616;10.032;2024-01-16T12:20:23;2.60;99.90
10873;DHT22;34586;53.616;10.032;2024-01-16T12:22:56;2.60;99.90
10873;DHT22;34586;53.616;10.032;2024-01-16T12:25:23;2.70;99.90
10873;DHT22;34586;53.616;10.032;2024-01-16T12:28:02;2.70;99.90
10873;DHT22;34586;53.616;10.032;2024-01-16T12:30:30;2.70;99.90
10873;DHT22;34586;53.616;10.032;2024-01-16T12:33:10;2.70;99.90
10873;DHT22;34586;53.616;10.032;2024-01-16T12:35:38;2.70;99.90
10873;DHT22;34586;53.616;10.032;2024-01-16T12:38:05;2.60;99.90
10873;DHT22;34586;53.616;10.032;2024-01-16T12:40:32;2.60;99.90
10873;DHT22;34586;53.616;10.032;2024-01-16T12:42:58;2.70;99.90
10873;DHT22;34586;53.616;10.032;2024-01-16T12:45:24;2.70;99.90
10873;DHT22;34586;53.616;10.032;2024-01-16T12:47:51;2.60;99.90
10873;DHT22;34586;53.616;10.032;2024-01-16T12:50:22;2.60;99.90
10873;DHT22;34586;53.616;10.032;2024-01-16T12:52:49;2.60;99.90
10873;DHT22;34586;53.616;10.032;2024-01-16T12:55:16;2.50;99.90
10873;DHT22;34586;53.616;10.032;2024-01-16T12:57:42;2.40;99.90
10873;DHT22;34586;53.616;10.032;2024-01-16T13:00:24;2.50;99.90
10873;DHT22;34586;53.616;10.032;2024-01-16T13:02:51;2.40;99.90
10873;DHT22;34586;53.616;10.032;2024-01-16T13:05:18;2.50;99.90
10873;DHT22;34586;53.616;10.032;2024-01-16T13:07:44;2.40;99.90
10873;DHT22;34586;53.616;10.032;2024-01-16T13:10:11;2.40;99.90
10873;DHT22;34586;53.616;10.032;2024-01-16T13:12:37;2.40;99.90
10873;DHT22;34586;53.616;10.032;2024-01-16T13:15:04;2.40;99.90
10873;DHT22;34586;53.616;10.032;2024-01-16T13:17:32;2.40;99.90
10873;DHT22;34586;53.616;10.032;2024-01-16T13:20:01;2.50;99.90
10873;DHT22;34586;53.616;10.032;2024-01-16T13:22:28;2.40;99.90
10873;DHT22;34586;53.616;10.032;2024-01-16T13:24:54;2.40;99.90
10873;DHT22;34586;53.616;10.032;2024-01-16T13:27:19;2.50;99.90
10873;DHT22;34586;53.616;10.032;2024-01-16T13:29:45;2.50;99.90
10873;DHT22;34586;53.616;10.032;2024-01-16T13:32:10;2.50;99.90
10873;DHT22;34586;53.616;10.032;2024-01-16T13:34:36;2.50;99.90
10873;DHT22;34586;53.616;10.032;2024-01-16T13:37:03;2.50;99.90
10873;DHT22;34586;53.616;10.032;2024-01-16T13:39:30;2.50;99.90
10873;DHT22;34586;53.616;10.032;2024-01-16T13:42:00;2.50;99.90
10873;DHT22;34586;53.616;10.032;2024-01-16T13:44:25;2.50;99.90
10873;DHT22;34586;53.616;10.032;2024-01-16T13:46:52;2.40;99.90
10873;DHT22;34586;53.616;10.032;2024-01-16T13:49:17;2.40;99.90
10873;DHT22;34586;53.616;10.032;2024-01-16T13:51:46;2.30;99.90
10873;DHT22;34586;53.616;10.032;2024-01-16T13:54:11;2.30;99.90
10873;DHT22;34586;53.616;10.032;2024-01-16T13:56:37;2.30;99.90
10873;DHT22;34586;53.616;10.032;2024-01-16T13:59:04;2.30;99.90
10873;DHT22;34586;53.616;10.032;2024-01-16T14:01:30;2.30;99.90
10873;DHT22;34586;53.616;10.032;2024-01-16T14:03:55;2.30;99.90
10873;DHT22;34586;53.616;10.032;2024-01-16T14:06:21;2.30;99.90
10873;DHT22;34586;53.616;10.032;2024-01-16T14:08:46;2.10;99.90
10873;DHT22;34586;53.616;10.032;2024-01-16T14:11:12;2.30;99.90
10873;DHT22;34586;53.616;10.032;2024-01-16T14:13:38;2.20;99.90
10873;DHT22;34586;53.616;10.032;2024-01-16T14:16:03;2.10;99.90
10873;DHT22;34586;53.616;10.032;2024-01-16T14:18:30;2.10;99.90
10873;DHT22;34586;53.616;10.032;2024-01-16T14:20:55;2.10;99.90
10873;DHT22;34586;53.616;10.032;2024-01-16T14:23:21;2.10;99.90
10873;DHT22;34586;53.616;10.032;2024-01-16T14:25:46;2.10;99.90
10873;DHT22;34586;53.616;10.032;2024-01-16T14:28:12;2.10;99.90
10873;DHT22;34586;53.616;10.032;2024-01-16T14:30:38;2.00;99.90
10873;DHT22;34586;53.616;10.032;2024-01-16T14:33:03;2.10;99.90
10873;DHT22;34586;53.616;10.032;2024-01-16T14:35:32;2.10;99.90
10873;DHT22;34586;53.616;10.032;2024-01-16T14:37:58;2.10;99.90
10873;DHT22;34586;53.616;10.032;2024-01-16T14:40:24;2.20;99.90
10873;DHT22;34586;53.616;10.032;2024-01-16T14:42:54;2.20;99.90
10873;DHT22;34586;53.616;10.032;2024-01-16T14:45:21;2.20;99.90
10873;DHT22;34586;53.616;10.032;2024-01-16T14:47:47;2.10;99.90
10873;DHT22;34586;53.616;10.032;2024-01-16T14:50:14;2.10;99.90
10873;DHT22;34586;53.616;10.032;2024-01-16T14:52:42;2.20;99.90
10873;DHT22;34586;53.616;10.032;2024-01-16T14:55:08;2.10;99.90
10873;DHT22;34586;53.616;10.032;2024-01-16T14:57:34;2.10;99.90
10873;DHT22;34586;53.616;10.032;2024-01-16T15:00:08;2.10;99.90
10873;DHT22;34586;53.616;10.032;2024-01-16T15:02:41;2.10;99.90
10873;DHT22;34586;53.616;10.032;2024-01-16T15:05:07;2.10;99.90
10873;DHT22;34586;53.616;10.032;2024-01-16T15:07:33;2.10;99.90
10873;DHT22;34586;53.616;10.032;2024-01-16T15:10:00;2.10;99.90
10873;DHT22;34586;53.616;10.032;2024-01-16T15:12:26;2.10;99.90
10873;DHT22;34586;53.616;10.032;2024-01-16T15:14:52;2.00;99.90
10873;DHT22;34586;53.616;10.032;2024-01-16T15:17:17;2.00;99.90
10873;DHT22;34586;53.616;10.032;2024-01-16T15:19:43;2.10;99.90
10873;DHT22;34586;53.616;10.032;2024-01-16T15:22:08;2.00;99.90
10873;DHT22;34586;53.616;10.032;2024-01-16T15:24:34;2.00;99.90
10873;DHT22;34586;53.616;10.032;2024-01-16T15:27:00;2.10;99.90
10873;DHT22;34586;53.616;10.032;2024-01-16T15:29:25;2.00;99.90
10873;DHT22;34586;53.616;10.032;2024-01-16T15:31:51;2.00;99.90
10873;DHT22;34586;53.616;10.032;2024-01-16T15:34:18;2.00;99.90